sensor_id;sensor_type;location;lat;lon;timestamp;pressure;altitude;pressure_sealevel;temperature;humidity
35878;BME280;21982;49.804;24.072;2023-05-25T00:01:34;97350.22;;;16.66;70.37
35878;BME280;21982;49.804;24.072;2023-05-25T00:04:01;97359.28;;;16.65;70.62
35878;BME280;21982;49.804;24.072;2023-05-25T00:06:28;97343.91;;;16.42;70.71
35878;BME280;21982;49.804;24.072;2023-05-25T00:08:54;97405.03;;;16.75;71.06
35878;BME280;21982;49.804;24.072;2023-05-25T00:11:22;97355.72;;;16.35;71.35
35878;BME280;21982;49.804;24.072;2023-05-25T00:13:48;97397.59;;;16.59;71.86
35878;BME280;21982;49.804;24.072;2023-05-25T00:18:49;97388.81;;;16.34;72.09
35878;BME280;21982;49.804;24.072;2023-05-25T00:21:15;97356.75;;;16.16;72.36
35878;BME280;21982;49.804;24.072;2023-05-25T00:23:41;97404.56;;;16.42;72.57
35878;BME280;21982;49.804;24.072;2023-05-25T00:26:06;97406.03;;;16.38;72.59
35878;BME280;21982;49.804;24.072;2023-05-25T00:28:32;97379.09;;;16.21;72.81
35878;BME280;21982;49.804;24.072;2023-05-25T00:30:57;97358.69;;;16.08;72.94
35878;BME280;21982;49.804;24.072;2023-05-25T00:33:23;97365.13;;;16.01;73.40
35878;BME280;21982;49.804;24.072;2023-05-25T00:35:48;97376.34;;;16.09;73.57
35878;BME280;21982;49.804;24.072;2023-05-25T00:38:18;97408.88;;;16.25;73.52
35878;BME280;21982;49.804;24.072;2023-05-25T00:40:43;97390.50;;;16.10;73.90
35878;BME280;21982;49.804;24.072;2023-05-25T00:43:11;97392.81;;;16.06;74.06
35878;BME280;21982;49.804;24.072;2023-05-25T00:45:37;97388.78;;;15.97;74.24
35878;BME280;21982;49.804;24.072;2023-05-25T00:48:06;97405.56;;;16.04;74.53
35878;BME280;21982;49.804;24.072;2023-05-25T00:50:40;97387.66;;;15.87;74.11
35878;BME280;21982;49.804;24.072;2023-05-25T00:53:35;97397.31;;;15.88;74.54
35878;BME280;21982;49.804;24.072;2023-05-25T00:56:03;97411.03;;;15.91;74.77
35878;BME280;21982;49.804;24.072;2023-05-25T00:58:33;97381.63;;;15.73;75.24
35878;BME280;21982;49.804;24.072;2023-05-25T01:01:02;97376.31;;;15.66;75.06
35878;BME280;21982;49.804;24.072;2023-05-25T01:03:30;97414.38;;;15.87;75.21
35878;BME280;21982;49.804;24.072;2023-05-25T01:06:03;97420.56;;;15.81;75.37
35878;BME280;21982;49.804;24.072;2023-05-25T01:08:32;97412.78;;;15.79;76.20
35878;BME280;21982;49.804;24.072;2023-05-25T01:10:59;97370.69;;;15.50;76.18
35878;BME280;21982;49.804;24.072;2023-05-25T01:13:27;97412.00;;;15.72;76.13
35878;BME280;21982;49.804;24.072;2023-05-25T01:15:55;97388.34;;;15.57;76.23
35878;BME280;21982;49.804;24.072;2023-05-25T01:18:21;97374.41;;;15.49;76.17
35878;BME280;21982;49.804;24.072;2023-05-25T01:21:11;97393.97;;;15.67;76.31
35878;BME280;21982;49.804;24.072;2023-05-25T01:24:02;97405.63;;;15.73;76.14
35878;BME280;21982;49.804;24.072;2023-05-25T01:26:34;97404.16;;;15.77;76.34
35878;BME280;21982;49.804;24.072;2023-05-25T01:29:03;97425.88;;;15.87;76.76
35878;BME280;21982;49.804;24.072;2023-05-25T01:31:32;97397.97;;;15.83;76.75
35878;BME280;21982;49.804;24.072;2023-05-25T01:33:59;97422.16;;;15.88;76.72
35878;BME280;21982;49.804;24.072;2023-05-25T01:36:25;97402.91;;;15.80;76.79
35878;BME280;21982;49.804;24.072;2023-05-25T01:38:51;97415.03;;;15.82;77.13
35878;BME280;21982;49.804;24.072;2023-05-25T01:41:16;97419.28;;;15.90;77.01
35878;BME280;21982;49.804;24.072;2023-05-25T01:43:41;97415.19;;;15.87;76.89
35878;BME280;21982;49.804;24.072;2023-05-25T01:46:20;97372.91;;;15.59;76.76
35878;BME280;21982;49.804;24.072;2023-05-25T01:49:28;97425.66;;;15.89;76.66
35878;BME280;21982;49.804;24.072;2023-05-25T01:54:27;97431.38;;;15.92;76.90
35878;BME280;21982;49.804;24.072;2023-05-25T01:56:57;97379.66;;;15.62;77.10
35878;BME280;21982;49.804;24.072;2023-05-25T01:59:26;97391.47;;;15.72;76.94
35878;BME280;21982;49.804;24.072;2023-05-25T02:01:53;97394.75;;;15.74;77.12
35878;BME280;21982;49.804;24.072;2023-05-25T02:04:19;97376.38;;;15.60;77.20
35878;BME280;21982;49.804;24.072;2023-05-25T02:06:47;97405.22;;;15.76;76.87
35878;BME280;21982;49.804;24.072;2023-05-25T02:09:13;97368.88;;;15.43;77.33
35878;BME280;21982;49.804;24.072;2023-05-25T02:11:38;97429.25;;;15.76;77.13
35878;BME280;21982;49.804;24.072;2023-05-25T02:14:03;97426.41;;;15.71;77.45
35878;BME280;21982;49.804;24.072;2023-05-25T02:16:29;97436.66;;;15.74;77.64
35878;BME280;21982;49.804;24.072;2023-05-25T02:18:55;97439.31;;;15.74;77.90
35878;BME280;21982;49.804;24.072;2023-05-25T02:21:22;97372.69;;;15.29;77.58
35878;BME280;21982;49.804;24.072;2023-05-25T02:23:48;97421.78;;;15.53;77.57
35878;BME280;21982;49.804;24.072;2023-05-25T02:26:14;97441.59;;;15.70;77.95
35878;BME280;21982;49.804;24.072;2023-05-25T02:28:40;97415.47;;;15.48;77.92
35878;BME280;21982;49.804;24.072;2023-05-25T02:31:05;97436.25;;;15.70;77.90
35878;BME280;21982;49.804;24.072;2023-05-25T02:33:34;97471.56;;;15.97;77.62
35878;BME280;21982;49.804;24.072;2023-05-25T02:35:59;97467.66;;;16.00;77.51
35878;BME280;21982;49.804;24.072;2023-05-25T02:38:25;97450.16;;;16.04;77.44
35878;BME280;21982;49.804;24.072;2023-05-25T02:40:50;97455.28;;;16.05;77.31
35878;BME280;21982;49.804;24.072;2023-05-25T02:43:15;97452.00;;;16.03;77.24
35878;BME280;21982;49.804;24.072;2023-05-25T02:45:41;97460.66;;;15.99;77.27
35878;BME280;21982;49.804;24.072;2023-05-25T02:48:08;97463.13;;;16.00;77.21
35878;BME280;21982;49.804;24.072;2023-05-25T02:50:34;97457.78;;;16.00;77.18
35878;BME280;21982;49.804;24.072;2023-05-25T02:52:59;97453.44;;;16.06;77.15
35878;BME280;21982;49.804;24.072;2023-05-25T02:55:26;97459.19;;;16.03;76.99
35878;BME280;21982;49.804;24.072;2023-05-25T02:57:51;97459.75;;;16.12;77.02
35878;BME280;21982;49.804;24.072;2023-05-25T03:00:17;97366.16;;;15.57;77.03
35878;BME280;21982;49.804;24.072;2023-05-25T03:02:44;97427.13;;;15.85;76.59
35878;BME280;21982;49.804;24.072;2023-05-25T03:05:11;97460.78;;;16.11;76.79
35878;BME280;21982;49.804;24.072;2023-05-25T03:07:36;97464.66;;;16.15;76.66
35878;BME280;21982;49.804;24.072;2023-05-25T03:10:02;97472.03;;;16.19;76.60
35878;BME280;21982;49.804;24.072;2023-05-25T03:12:27;97439.09;;;16.00;76.62
35878;BME280;21982;49.804;24.072;2023-05-25T03:14:53;97438.06;;;16.01;76.23
35878;BME280;21982;49.804;24.072;2023-05-25T03:17:18;97476.09;;;16.22;76.60
35878;BME280;21982;49.804;24.072;2023-05-25T03:19:43;97425.00;;;15.93;76.40
35878;BME280;21982;49.804;24.072;2023-05-25T03:22:09;97479.50;;;16.29;76.42
35878;BME280;21982;49.804;24.072;2023-05-25T03:24:34;97485.47;;;16.31;76.07
35878;BME280;21982;49.804;24.072;2023-05-25T03:26:59;97443.81;;;15.98;76.00
35878;BME280;21982;49.804;24.072;2023-05-25T03:29:26;97490.81;;;16.31;76.06
35878;BME280;21982;49.804;24.072;2023-05-25T03:31:51;97416.81;;;15.88;75.54
35878;BME280;21982;49.804;24.072;2023-05-25T03:34:18;97487.69;;;16.34;75.97
35878;BME280;21982;49.804;24.072;2023-05-25T03:36:43;97487.25;;;16.37;75.91
35878;BME280;21982;49.804;24.072;2023-05-25T03:39:12;97428.56;;;16.05;75.73
35878;BME280;21982;49.804;24.072;2023-05-25T03:41:37;97502.84;;;16.40;75.52
35878;BME280;21982;49.804;24.072;2023-05-25T03:44:03;97483.75;;;16.36;75.62
35878;BME280;21982;49.804;24.072;2023-05-25T03:46:28;97489.72;;;16.38;75.38
35878;BME280;21982;49.804;24.072;2023-05-25T03:48:55;97475.59;;;16.31;75.50
35878;BME280;21982;49.804;24.072;2023-05-25T03:51:20;97494.25;;;16.38;75.35
35878;BME280;21982;49.804;24.072;2023-05-25T03:53:45;97497.94;;;16.37;75.20
35878;BME280;21982;49.804;24.072;2023-05-25T03:56:11;97453.16;;;16.14;75.12
35878;BME280;21982;49.804;24.072;2023-05-25T03:58:36;97491.94;;;16.41;75.33
35878;BME280;21982;49.804;24.072;2023-05-25T04:01:01;97502.78;;;16.47;75.33
35878;BME280;21982;49.804;24.072;2023-05-25T04:03:27;97503.78;;;16.52;74.72
35878;BME280;21982;49.804;24.072;2023-05-25T04:05:52;97508.91;;;16.54;74.89
35878;BME280;21982;49.804;24.072;2023-05-25T04:08:18;97496.84;;;16.45;74.99
35878;BME280;21982;49.804;24.072;2023-05-25T04:10:46;97510.31;;;16.56;74.46
35878;BME280;21982;49.804;24.072;2023-05-25T04:13:12;97494.41;;;16.43;74.42
35878;BME280;21982;49.804;24.072;2023-05-25T04:15:37;97493.31;;;16.51;74.54
35878;BME280;21982;49.804;24.072;2023-05-25T04:18:03;97521.34;;;16.66;74.29
35878;BME280;21982;49.804;24.072;2023-05-25T04:20:29;97437.66;;;16.23;74.08
35878;BME280;21982;49.804;24.072;2023-05-25T04:22:56;97520.00;;;16.75;74.02
35878;BME280;21982;49.804;24.072;2023-05-25T04:25:22;97492.59;;;16.62;73.81
35878;BME280;21982;49.804;24.072;2023-05-25T04:27:48;97504.19;;;16.74;73.60
35878;BME280;21982;49.804;24.072;2023-05-25T04:30:14;97479.28;;;16.55;73.51
35878;BME280;21982;49.804;24.072;2023-05-25T04:32:40;97500.69;;;16.73;73.01
35878;BME280;21982;49.804;24.072;2023-05-25T04:35:05;97528.19;;;16.81;72.66
35878;BME280;21982;49.804;24.072;2023-05-25T04:37:31;97530.28;;;16.79;73.17
35878;BME280;21982;49.804;24.072;2023-05-25T04:39:57;97540.03;;;16.91;72.86
35878;BME280;21982;49.804;24.072;2023-05-25T04:42:26;97463.19;;;16.62;72.42
35878;BME280;21982;49.804;24.072;2023-05-25T04:44:53;97539.28;;;17.21;72.30
35878;BME280;21982;49.804;24.072;2023-05-25T04:47:21;97548.53;;;17.36;72.01
35878;BME280;21982;49.804;24.072;2023-05-25T04:49:49;97473.63;;;17.00;71.54
35878;BME280;21982;49.804;24.072;2023-05-25T04:52:14;97547.41;;;17.44;71.53
35878;BME280;21982;49.804;24.072;2023-05-25T04:54:40;97555.06;;;17.40;70.93
35878;BME280;21982;49.804;24.072;2023-05-25T04:57:05;97526.03;;;17.26;71.15
35878;BME280;21982;49.804;24.072;2023-05-25T04:59:31;97448.13;;;16.86;70.72
35878;BME280;21982;49.804;24.072;2023-05-25T05:01:56;97554.78;;;17.67;70.49
35878;BME280;21982;49.804;24.072;2023-05-25T05:04:22;97521.59;;;17.50;70.23
35878;BME280;21982;49.804;24.072;2023-05-25T05:06:47;97527.69;;;17.57;69.84
35878;BME280;21982;49.804;24.072;2023-05-25T05:09:13;97514.84;;;17.47;69.85
35878;BME280;21982;49.804;24.072;2023-05-25T05:11:38;97560.03;;;17.73;69.65
35878;BME280;21982;49.804;24.072;2023-05-25T05:14:04;97486.13;;;17.24;69.70
35878;BME280;21982;49.804;24.072;2023-05-25T05:16:30;97559.72;;;17.82;69.55
35878;BME280;21982;49.804;24.072;2023-05-25T05:19:02;97492.06;;;17.26;69.22
35878;BME280;21982;49.804;24.072;2023-05-25T05:21:28;97574.38;;;17.79;69.31
35878;BME280;21982;49.804;24.072;2023-05-25T05:23:54;97578.09;;;17.78;69.04
35878;BME280;21982;49.804;24.072;2023-05-25T05:26:21;97552.66;;;17.69;68.94
35878;BME280;21982;49.804;24.072;2023-05-25T05:28:47;97524.56;;;17.60;68.43
35878;BME280;21982;49.804;24.072;2023-05-25T05:31:12;97569.91;;;18.03;68.34
35878;BME280;21982;49.804;24.072;2023-05-25T05:33:38;97557.00;;;18.00;67.92
35878;BME280;21982;49.804;24.072;2023-05-25T05:36:04;97553.81;;;18.03;67.91
35878;BME280;21982;49.804;24.072;2023-05-25T05:38:29;97545.22;;;18.01;67.69
35878;BME280;21982;49.804;24.072;2023-05-25T05:40:55;97524.47;;;17.96;67.35
35878;BME280;21982;49.804;24.072;2023-05-25T05:43:20;97572.78;;;18.31;67.21
35878;BME280;21982;49.804;24.072;2023-05-25T05:45:46;97578.50;;;18.35;66.75
35878;BME280;21982;49.804;24.072;2023-05-25T05:48:12;97567.19;;;18.33;66.61
35878;BME280;21982;49.804;24.072;2023-05-25T05:50:38;97545.84;;;18.26;66.28
35878;BME280;21982;49.804;24.072;2023-05-25T05:53:04;97563.72;;;18.56;65.91
35878;BME280;21982;49.804;24.072;2023-05-25T05:55:30;97558.88;;;18.64;65.30
35878;BME280;21982;49.804;24.072;2023-05-25T05:57:56;97591.06;;;18.99;64.94
35878;BME280;21982;49.804;24.072;2023-05-25T06:00:21;97568.28;;;19.02;64.18
35878;BME280;21982;49.804;24.072;2023-05-25T06:02:47;97554.72;;;19.20;63.73
35878;BME280;21982;49.804;24.072;2023-05-25T06:05:12;97591.03;;;19.74;63.01
35878;BME280;21982;49.804;24.072;2023-05-25T06:07:37;97569.59;;;20.53;61.32
35878;BME280;21982;49.804;24.072;2023-05-25T06:10:04;97588.97;;;20.89;60.05
35878;BME280;21982;49.804;24.072;2023-05-25T06:12:30;97559.88;;;20.35;59.89
35878;BME280;21982;49.804;24.072;2023-05-25T06:14:55;97603.84;;;20.41;60.59
35878;BME280;21982;49.804;24.072;2023-05-25T06:17:21;97554.34;;;19.97;60.67
35878;BME280;21982;49.804;24.072;2023-05-25T06:19:47;97607.97;;;20.03;60.99
35878;BME280;21982;49.804;24.072;2023-05-25T06:22:15;97574.19;;;19.79;61.26
35878;BME280;21982;49.804;24.072;2023-05-25T06:24:41;97602.50;;;19.98;61.07
35878;BME280;21982;49.804;24.072;2023-05-25T06:27:06;97411.53;;;18.74;60.63
35878;BME280;21982;49.804;24.072;2023-05-25T06:29:32;97599.34;;;20.01;60.39
35878;BME280;21982;49.804;24.072;2023-05-25T06:31:57;97614.16;;;20.49;60.09
35878;BME280;21982;49.804;24.072;2023-05-25T06:34:23;97568.09;;;20.46;59.09
35878;BME280;21982;49.804;24.072;2023-05-25T06:36:48;97609.63;;;20.66;58.78
35878;BME280;21982;49.804;24.072;2023-05-25T06:39:13;97611.47;;;20.49;59.00
35878;BME280;21982;49.804;24.072;2023-05-25T06:41:39;97588.94;;;21.22;58.16
35878;BME280;21982;49.804;24.072;2023-05-25T06:44:05;97609.66;;;21.87;56.69
35878;BME280;21982;49.804;24.072;2023-05-25T06:46:32;97615.97;;;21.71;56.23
35878;BME280;21982;49.804;24.072;2023-05-25T06:48:58;97605.38;;;21.43;56.30
35878;BME280;21982;49.804;24.072;2023-05-25T06:51:24;97603.91;;;21.18;56.67
35878;BME280;21982;49.804;24.072;2023-05-25T06:53:52;97574.88;;;21.20;56.53
35878;BME280;21982;49.804;24.072;2023-05-25T06:56:17;97625.44;;;21.73;55.90
35878;BME280;21982;49.804;24.072;2023-05-25T06:58:43;97628.63;;;22.14;55.42
35878;BME280;21982;49.804;24.072;2023-05-25T07:01:08;97622.34;;;22.35;54.54
35878;BME280;21982;49.804;24.072;2023-05-25T07:03:33;97485.56;;;22.36;53.41
35878;BME280;21982;49.804;24.072;2023-05-25T07:05:59;97633.13;;;23.89;52.06
35878;BME280;21982;49.804;24.072;2023-05-25T07:08:26;97624.84;;;24.21;50.69
35878;BME280;21982;49.804;24.072;2023-05-25T07:10:55;97630.56;;;24.39;49.89
35878;BME280;21982;49.804;24.072;2023-05-25T07:13:22;97617.31;;;24.43;49.63
35878;BME280;21982;49.804;24.072;2023-05-25T07:15:48;97640.34;;;25.12;48.85
35878;BME280;21982;49.804;24.072;2023-05-25T07:18:13;97583.75;;;24.49;48.50
35878;BME280;21982;49.804;24.072;2023-05-25T07:20:39;97556.41;;;24.51;48.51
35878;BME280;21982;49.804;24.072;2023-05-25T07:23:07;97629.16;;;25.49;47.55
35878;BME280;21982;49.804;24.072;2023-05-25T07:25:33;97619.91;;;26.24;46.08
35878;BME280;21982;49.804;24.072;2023-05-25T07:27:59;97616.56;;;27.06;44.65
35878;BME280;21982;49.804;24.072;2023-05-25T07:30:24;97606.66;;;27.91;43.50
35878;BME280;21982;49.804;24.072;2023-05-25T07:32:50;97627.44;;;28.81;42.01
35878;BME280;21982;49.804;24.072;2023-05-25T07:35:15;97632.53;;;29.34;40.45
35878;BME280;21982;49.804;24.072;2023-05-25T07:37:40;97639.84;;;29.52;40.52
35878;BME280;21982;49.804;24.072;2023-05-25T07:40:06;97646.44;;;29.65;39.49
35878;BME280;21982;49.804;24.072;2023-05-25T07:42:32;97656.34;;;30.02;38.88
35878;BME280;21982;49.804;24.072;2023-05-25T07:44:59;97595.88;;;29.54;38.57
35878;BME280;21982;49.804;24.072;2023-05-25T07:47:25;97651.00;;;30.11;38.32
35878;BME280;21982;49.804;24.072;2023-05-25T07:49:51;97606.09;;;30.39;37.39
35878;BME280;21982;49.804;24.072;2023-05-25T07:52:16;97648.13;;;31.10;36.96
35878;BME280;21982;49.804;24.072;2023-05-25T07:54:44;97614.56;;;30.96;36.40
35878;BME280;21982;49.804;24.072;2023-05-25T07:57:10;97633.72;;;30.74;36.26
35878;BME280;21982;49.804;24.072;2023-05-25T07:59:35;97566.94;;;30.52;36.00
35878;BME280;21982;49.804;24.072;2023-05-25T08:02:01;97640.00;;;31.50;35.33
35878;BME280;21982;49.804;24.072;2023-05-25T08:04:26;97638.03;;;31.42;34.90
35878;BME280;21982;49.804;24.072;2023-05-25T08:06:52;97622.44;;;30.97;35.08
35878;BME280;21982;49.804;24.072;2023-05-25T08:09:17;97644.91;;;31.08;35.14
35878;BME280;21982;49.804;24.072;2023-05-25T08:11:42;97647.88;;;31.20;34.82
35878;BME280;21982;49.804;24.072;2023-05-25T08:14:10;97631.09;;;30.69;35.37
35878;BME280;21982;49.804;24.072;2023-05-25T08:16:35;97631.13;;;30.55;35.39
35878;BME280;21982;49.804;24.072;2023-05-25T08:19:02;97641.19;;;30.82;35.21
35878;BME280;21982;49.804;24.072;2023-05-25T08:21:29;97631.22;;;31.08;34.88
35878;BME280;21982;49.804;24.072;2023-05-25T08:23:54;97649.16;;;31.14;34.58
35878;BME280;21982;49.804;24.072;2023-05-25T08:26:21;97626.63;;;31.17;34.41
35878;BME280;21982;49.804;24.072;2023-05-25T08:28:47;97629.84;;;31.50;33.76
35878;BME280;21982;49.804;24.072;2023-05-25T08:31:12;97608.28;;;31.49;33.77
35878;BME280;21982;49.804;24.072;2023-05-25T08:33:39;97652.41;;;31.95;32.98
35878;BME280;21982;49.804;24.072;2023-05-25T08:36:05;97612.94;;;31.57;33.01
35878;BME280;21982;49.804;24.072;2023-05-25T08:38:31;97629.31;;;31.71;33.23
35878;BME280;21982;49.804;24.072;2023-05-25T08:41:04;97635.44;;;31.76;33.30
35878;BME280;21982;49.804;24.072;2023-05-25T08:43:31;97646.44;;;31.54;33.47
35878;BME280;21982;49.804;24.072;2023-05-25T08:46:00;97642.88;;;31.45;33.35
35878;BME280;21982;49.804;24.072;2023-05-25T08:48:27;97652.41;;;31.87;32.81
35878;BME280;21982;49.804;24.072;2023-05-25T08:50:57;97662.69;;;32.47;32.24
35878;BME280;21982;49.804;24.072;2023-05-25T08:53:25;97611.88;;;32.58;31.68
35878;BME280;21982;49.804;24.072;2023-05-25T08:55:53;97625.44;;;32.72;31.23
35878;BME280;21982;49.804;24.072;2023-05-25T08:58:19;97654.31;;;32.95;31.19
35878;BME280;21982;49.804;24.072;2023-05-25T09:00:54;97627.78;;;33.34;30.74
35878;BME280;21982;49.804;24.072;2023-05-25T09:03:22;97631.38;;;33.17;30.89
35878;BME280;21982;49.804;24.072;2023-05-25T09:05:49;97653.31;;;33.25;31.00
35878;BME280;21982;49.804;24.072;2023-05-25T09:08:16;97593.78;;;33.00;30.82
35878;BME280;21982;49.804;24.072;2023-05-25T09:10:41;97637.94;;;33.42;30.54
35878;BME280;21982;49.804;24.072;2023-05-25T09:13:07;97600.84;;;33.18;30.51
35878;BME280;21982;49.804;24.072;2023-05-25T09:15:33;97639.94;;;33.62;30.30
35878;BME280;21982;49.804;24.072;2023-05-25T09:17:59;97642.00;;;33.82;30.04
35878;BME280;21982;49.804;24.072;2023-05-25T09:20:24;97619.03;;;33.87;29.83
35878;BME280;21982;49.804;24.072;2023-05-25T09:22:56;97636.72;;;33.98;29.88
35878;BME280;21982;49.804;24.072;2023-05-25T09:25:22;97652.06;;;33.99;29.89
35878;BME280;21982;49.804;24.072;2023-05-25T09:27:50;97618.38;;;33.43;29.81
35878;BME280;21982;49.804;24.072;2023-05-25T09:30:15;97618.97;;;33.02;30.66
35878;BME280;21982;49.804;24.072;2023-05-25T09:32:41;97595.28;;;32.89;30.43
35878;BME280;21982;49.804;24.072;2023-05-25T09:35:08;97594.00;;;32.86;30.41
35878;BME280;21982;49.804;24.072;2023-05-25T09:37:35;97634.97;;;32.91;30.22
35878;BME280;21982;49.804;24.072;2023-05-25T09:40:02;97608.38;;;32.57;30.87
35878;BME280;21982;49.804;24.072;2023-05-25T09:42:28;97653.00;;;32.58;31.19
35878;BME280;21982;49.804;24.072;2023-05-25T09:44:53;97651.03;;;32.15;31.60
35878;BME280;21982;49.804;24.072;2023-05-25T09:47:19;97659.31;;;32.41;31.29
35878;BME280;21982;49.804;24.072;2023-05-25T09:49:45;97663.19;;;32.57;31.32
35878;BME280;21982;49.804;24.072;2023-05-25T09:52:11;97658.69;;;32.79;30.93
35878;BME280;21982;49.804;24.072;2023-05-25T09:54:37;97662.09;;;32.84;31.12
35878;BME280;21982;49.804;24.072;2023-05-25T09:57:04;97661.25;;;32.67;30.59
35878;BME280;21982;49.804;24.072;2023-05-25T09:59:30;97622.91;;;31.84;31.57
35878;BME280;21982;49.804;24.072;2023-05-25T10:01:57;97637.53;;;31.71;31.88
35878;BME280;21982;49.804;24.072;2023-05-25T10:04:22;97615.19;;;31.94;31.89
35878;BME280;21982;49.804;24.072;2023-05-25T10:06:47;97653.81;;;32.41;31.71
35878;BME280;21982;49.804;24.072;2023-05-25T10:09:21;97648.53;;;32.88;30.65
35878;BME280;21982;49.804;24.072;2023-05-25T10:11:50;97643.97;;;33.09;30.87
35878;BME280;21982;49.804;24.072;2023-05-25T10:14:22;97621.72;;;32.93;30.19
35878;BME280;21982;49.804;24.072;2023-05-25T10:16:53;97613.63;;;33.14;30.35
35878;BME280;21982;49.804;24.072;2023-05-25T10:19:23;97643.91;;;33.35;30.43
35878;BME280;21982;49.804;24.072;2023-05-25T10:21:57;97626.56;;;32.62;30.89
35878;BME280;21982;49.804;24.072;2023-05-25T10:24:43;97598.81;;;32.20;31.53
35878;BME280;21982;49.804;24.072;2023-05-25T10:27:18;97648.97;;;32.73;30.78
35878;BME280;21982;49.804;24.072;2023-05-25T10:29:46;97644.00;;;32.49;31.48
35878;BME280;21982;49.804;24.072;2023-05-25T10:32:12;97617.97;;;32.12;31.24
35878;BME280;21982;49.804;24.072;2023-05-25T10:34:40;97608.66;;;32.30;31.18
35878;BME280;21982;49.804;24.072;2023-05-25T10:37:09;97636.41;;;32.72;30.88
35878;BME280;21982;49.804;24.072;2023-05-25T10:39:41;97643.81;;;33.06;31.03
35878;BME280;21982;49.804;24.072;2023-05-25T10:42:08;97607.03;;;32.63;31.14
35878;BME280;21982;49.804;24.072;2023-05-25T10:44:33;97585.72;;;32.00;31.19
35878;BME280;21982;49.804;24.072;2023-05-25T10:46:59;97633.19;;;32.52;31.41
35878;BME280;21982;49.804;24.072;2023-05-25T10:49:33;97613.53;;;32.76;31.15
35878;BME280;21982;49.804;24.072;2023-05-25T10:51:59;97624.00;;;32.83;30.68
35878;BME280;21982;49.804;24.072;2023-05-25T10:54:29;97618.34;;;32.79;30.85
35878;BME280;21982;49.804;24.072;2023-05-25T10:57:09;97612.72;;;32.84;31.30
35878;BME280;21982;49.804;24.072;2023-05-25T10:59:38;97577.22;;;32.36;31.47
35878;BME280;21982;49.804;24.072;2023-05-25T11:02:06;97616.91;;;32.56;31.19
35878;BME280;21982;49.804;24.072;2023-05-25T11:04:31;97611.56;;;32.42;31.63
35878;BME280;21982;49.804;24.072;2023-05-25T11:09:28;97605.69;;;33.21;31.13
35878;BME280;21982;49.804;24.072;2023-05-25T11:14:31;97601.22;;;34.14;29.97
35878;BME280;21982;49.804;24.072;2023-05-25T11:17:10;97559.47;;;34.41;29.53
35878;BME280;21982;49.804;24.072;2023-05-25T11:19:45;97579.66;;;34.99;28.96
35878;BME280;21982;49.804;24.072;2023-05-25T11:22:32;97547.06;;;34.89;28.74
35878;BME280;21982;49.804;24.072;2023-05-25T11:25:02;97504.00;;;34.39;28.82
35878;BME280;21982;49.804;24.072;2023-05-25T11:27:31;97558.75;;;34.86;28.77
35878;BME280;21982;49.804;24.072;2023-05-25T11:29:58;97587.22;;;35.02;28.61
35878;BME280;21982;49.804;24.072;2023-05-25T11:32:24;97579.88;;;35.06;28.40
35878;BME280;21982;49.804;24.072;2023-05-25T11:34:54;97554.59;;;35.37;28.16
35878;BME280;21982;49.804;24.072;2023-05-25T11:37:24;97570.78;;;35.39;28.29
35878;BME280;21982;49.804;24.072;2023-05-25T11:39:51;97575.56;;;35.17;28.27
35878;BME280;21982;49.804;24.072;2023-05-25T11:42:20;97520.81;;;34.58;28.46
35878;BME280;21982;49.804;24.072;2023-05-25T11:44:46;97567.94;;;34.36;29.05
35878;BME280;21982;49.804;24.072;2023-05-25T11:47:15;97567.50;;;34.05;29.33
35878;BME280;21982;49.804;24.072;2023-05-25T11:49:45;97504.41;;;33.37;30.08
35878;BME280;21982;49.804;24.072;2023-05-25T11:52:13;97554.53;;;33.55;30.12
35878;BME280;21982;49.804;24.072;2023-05-25T11:54:41;97570.91;;;33.72;30.11
35878;BME280;21982;49.804;24.072;2023-05-25T11:57:20;97566.50;;;33.88;29.63
35878;BME280;21982;49.804;24.072;2023-05-25T11:59:52;97563.09;;;33.91;29.46
35878;BME280;21982;49.804;24.072;2023-05-25T12:02:19;97558.06;;;34.14;29.46
35878;BME280;21982;49.804;24.072;2023-05-25T12:04:58;97544.78;;;33.95;29.68
35878;BME280;21982;49.804;24.072;2023-05-25T12:07:26;97550.06;;;33.80;29.85
35878;BME280;21982;49.804;24.072;2023-05-25T12:10:11;97543.81;;;33.33;30.51
35878;BME280;21982;49.804;24.072;2023-05-25T12:12:47;97520.91;;;32.82;30.57
35878;BME280;21982;49.804;24.072;2023-05-25T12:15:16;97503.41;;;32.95;30.86
35878;BME280;21982;49.804;24.072;2023-05-25T12:17:45;97421.88;;;32.75;30.73
35878;BME280;21982;49.804;24.072;2023-05-25T12:20:12;97430.50;;;32.94;30.12
35878;BME280;21982;49.804;24.072;2023-05-25T12:22:39;97531.63;;;33.13;30.85
35878;BME280;21982;49.804;24.072;2023-05-25T12:25:06;97534.38;;;33.04;30.87
35878;BME280;21982;49.804;24.072;2023-05-25T12:27:32;97468.84;;;32.56;30.73
35878;BME280;21982;49.804;24.072;2023-05-25T12:29:58;97516.91;;;32.53;30.73
35878;BME280;21982;49.804;24.072;2023-05-25T12:32:23;97527.03;;;32.61;30.78
35878;BME280;21982;49.804;24.072;2023-05-25T12:34:49;97530.16;;;32.51;31.02
35878;BME280;21982;49.804;24.072;2023-05-25T12:37:21;97533.34;;;32.10;31.48
35878;BME280;21982;49.804;24.072;2023-05-25T12:39:47;97504.81;;;31.68;31.31
35878;BME280;21982;49.804;24.072;2023-05-25T12:42:14;97491.53;;;31.05;31.82
35878;BME280;21982;49.804;24.072;2023-05-25T12:44:41;97514.50;;;30.95;32.46
35878;BME280;21982;49.804;24.072;2023-05-25T12:47:20;97520.19;;;30.54;32.91
35878;BME280;21982;49.804;24.072;2023-05-25T12:49:53;97500.47;;;30.12;33.49
35878;BME280;21982;49.804;24.072;2023-05-25T12:55:28;97429.06;;;29.19;34.14
35878;BME280;21982;49.804;24.072;2023-05-25T12:57:57;97492.19;;;29.54;34.49
35878;BME280;21982;49.804;24.072;2023-05-25T13:00:31;97388.69;;;28.66;35.04
35878;BME280;21982;49.804;24.072;2023-05-25T13:02:58;97430.56;;;28.71;35.11
35878;BME280;21982;49.804;24.072;2023-05-25T13:05:25;97439.22;;;28.59;35.90